sensor_id;sensor_type;location;lat;lon;timestamp;P1;durP1;ratioP1;P2;durP2;ratioP2
15340;SDS011;7770;52.158;5.372;2023-07-08T00:00:13;6.20;;;5.60;;
15340;SDS011;7770;52.158;5.372;2023-07-08T00:03:02;9.83;;;5.40;;
15340;SDS011;7770;52.158;5.372;2023-07-08T00:05:50;6.00;;;5.40;;
15340;SDS011;7770;52.158;5.372;2023-07-08T00:08:40;7.63;;;5.97;;
15340;SDS011;7770;52.158;5.372;2023-07-08T00:11:27;6.57;;;5.37;;
15340;SDS011;7770;52.158;5.372;2023-07-08T00:14:14;6.40;;;5.33;;
15340;SDS011;7770;52.158;5.372;2023-07-08T00:17:00;6.07;;;5.43;;
15340;SDS011;7770;52.158;5.372;2023-07-08T00:19:46;6.23;;;5.63;;
15340;SDS011;7770;52.158;5.372;2023-07-08T00:22:32;5.87;;;5.23;;
15340;SDS011;7770;52.158;5.372;2023-07-08T00:25:21;6.47;;;5.60;;
15340;SDS011;7770;52.158;5.372;2023-07-08T00:28:12;6.03;;;5.43;;
15340;SDS011;7770;52.158;5.372;2023-07-08T00:31:01;10.30;;;5.87;;
15340;SDS011;7770;52.158;5.372;2023-07-08T00:33:47;6.43;;;5.83;;
15340;SDS011;7770;52.158;5.372;2023-07-08T00:36:33;9.53;;;5.93;;
15340;SDS011;7770;52.158;5.372;2023-07-08T00:39:20;6.27;;;5.73;;
15340;SDS011;7770;52.158;5.372;2023-07-08T00:42:15;8.67;;;5.80;;
15340;SDS011;7770;52.158;5.372;2023-07-08T00:45:10;7.50;;;5.60;;
15340;SDS011;7770;52.158;5.372;2023-07-08T00:48:18;7.37;;;5.60;;
15340;SDS011;7770;52.158;5.372;2023-07-08T00:51:11;6.30;;;5.70;;
15340;SDS011;7770;52.158;5.372;2023-07-08T00:53:57;6.97;;;5.43;;
15340;SDS011;7770;52.158;5.372;2023-07-08T00:56:45;10.70;;;5.67;;
15340;SDS011;7770;52.158;5.372;2023-07-08T00:59:47;6.17;;;5.67;;
15340;SDS011;7770;52.158;5.372;2023-07-08T01:02:40;8.83;;;5.77;;
15340;SDS011;7770;52.158;5.372;2023-07-08T01:05:38;6.93;;;5.40;;
15340;SDS011;7770;52.158;5.372;2023-07-08T01:08:24;6.27;;;5.67;;
15340;SDS011;7770;52.158;5.372;2023-07-08T01:11:14;7.17;;;5.90;;
15340;SDS011;7770;52.158;5.372;2023-07-08T01:14:00;6.57;;;5.57;;
15340;SDS011;7770;52.158;5.372;2023-07-08T01:16:48;6.53;;;5.93;;
15340;SDS011;7770;52.158;5.372;2023-07-08T01:19:36;6.43;;;5.83;;
15340;SDS011;7770;52.158;5.372;2023-07-08T01:22:23;9.93;;;6.67;;
15340;SDS011;7770;52.158;5.372;2023-07-08T01:25:09;6.60;;;5.90;;
15340;SDS011;7770;52.158;5.372;2023-07-08T01:27:57;7.50;;;5.83;;
15340;SDS011;7770;52.158;5.372;2023-07-08T01:30:43;7.73;;;6.60;;
15340;SDS011;7770;52.158;5.372;2023-07-08T01:33:31;7.30;;;6.13;;
15340;SDS011;7770;52.158;5.372;2023-07-08T01:36:19;6.40;;;5.90;;
15340;SDS011;7770;52.158;5.372;2023-07-08T01:39:05;6.83;;;6.13;;
15340;SDS011;7770;52.158;5.372;2023-07-08T01:41:51;6.87;;;5.90;;
15340;SDS011;7770;52.158;5.372;2023-07-08T01:44:38;6.80;;;6.13;;
15340;SDS011;7770;52.158;5.372;2023-07-08T01:47:24;8.33;;;6.23;;
15340;SDS011;7770;52.158;5.372;2023-07-08T01:50:10;6.30;;;5.70;;
15340;SDS011;7770;52.158;5.372;2023-07-08T01:52:58;6.80;;;6.10;;
15340;SDS011;7770;52.158;5.372;2023-07-08T01:55:45;6.90;;;6.20;;
15340;SDS011;7770;52.158;5.372;2023-07-08T01:58:31;7.03;;;6.37;;
15340;SDS011;7770;52.158;5.372;2023-07-08T02:01:18;7.97;;;6.57;;
15340;SDS011;7770;52.158;5.372;2023-07-08T02:04:04;7.73;;;6.07;;
15340;SDS011;7770;52.158;5.372;2023-07-08T02:06:51;6.93;;;6.23;;
15340;SDS011;7770;52.158;5.372;2023-07-08T02:09:45;6.87;;;6.17;;
15340;SDS011;7770;52.158;5.372;2023-07-08T02:12:31;7.20;;;6.50;;
15340;SDS011;7770;52.158;5.372;2023-07-08T02:15:17;6.50;;;6.00;;
15340;SDS011;7770;52.158;5.372;2023-07-08T02:18:03;8.03;;;5.83;;
15340;SDS011;7770;52.158;5.372;2023-07-08T02:20:49;7.23;;;6.53;;
15340;SDS011;7770;52.158;5.372;2023-07-08T02:23:35;7.07;;;6.40;;
15340;SDS011;7770;52.158;5.372;2023-07-08T02:26:21;7.07;;;5.90;;
15340;SDS011;7770;52.158;5.372;2023-07-08T02:29:07;7.10;;;6.20;;
15340;SDS011;7770;52.158;5.372;2023-07-08T02:31:53;9.87;;;6.53;;
15340;SDS011;7770;52.158;5.372;2023-07-08T02:34:39;8.80;;;6.43;;
15340;SDS011;7770;52.158;5.372;2023-07-08T02:37:25;8.40;;;6.33;;
15340;SDS011;7770;52.158;5.372;2023-07-08T02:40:11;7.13;;;6.53;;
15340;SDS011;7770;52.158;5.372;2023-07-08T02:42:57;7.20;;;6.50;;
15340;SDS011;7770;52.158;5.372;2023-07-08T02:45:43;7.23;;;6.47;;
15340;SDS011;7770;52.158;5.372;2023-07-08T02:48:29;7.33;;;6.63;;
15340;SDS011;7770;52.158;5.372;2023-07-08T02:51:15;7.53;;;6.73;;
15340;SDS011;7770;52.158;5.372;2023-07-08T02:54:01;8.83;;;6.90;;
15340;SDS011;7770;52.158;5.372;2023-07-08T02:56:47;7.80;;;6.60;;
15340;SDS011;7770;52.158;5.372;2023-07-08T02:59:33;7.77;;;6.90;;
15340;SDS011;7770;52.158;5.372;2023-07-08T03:02:21;10.73;;;7.30;;
15340;SDS011;7770;52.158;5.372;2023-07-08T03:05:08;7.23;;;6.63;;
15340;SDS011;7770;52.158;5.372;2023-07-08T03:07:54;7.87;;;7.10;;
15340;SDS011;7770;52.158;5.372;2023-07-08T03:10:40;7.33;;;6.60;;
15340;SDS011;7770;52.158;5.372;2023-07-08T03:13:26;7.80;;;6.23;;
15340;SDS011;7770;52.158;5.372;2023-07-08T03:16:13;6.93;;;6.33;;
15340;SDS011;7770;52.158;5.372;2023-07-08T03:18:59;6.73;;;6.07;;
15340;SDS011;7770;52.158;5.372;2023-07-08T03:21:45;8.57;;;7.57;;
15340;SDS011;7770;52.158;5.372;2023-07-08T03:24:31;8.10;;;7.30;;
15340;SDS011;7770;52.158;5.372;2023-07-08T03:27:17;7.60;;;6.90;;
15340;SDS011;7770;52.158;5.372;2023-07-08T03:30:03;7.77;;;7.00;;
15340;SDS011;7770;52.158;5.372;2023-07-08T03:32:50;12.00;;;7.30;;
15340;SDS011;7770;52.158;5.372;2023-07-08T03:35:36;8.00;;;6.90;;
15340;SDS011;7770;52.158;5.372;2023-07-08T03:38:23;7.60;;;7.00;;
15340;SDS011;7770;52.158;5.372;2023-07-08T03:41:09;8.00;;;6.97;;
15340;SDS011;7770;52.158;5.372;2023-07-08T03:43:55;8.03;;;6.60;;
15340;SDS011;7770;52.158;5.372;2023-07-08T03:46:45;8.60;;;7.80;;
15340;SDS011;7770;52.158;5.372;2023-07-08T03:49:34;8.10;;;7.30;;
15340;SDS011;7770;52.158;5.372;2023-07-08T03:52:20;8.20;;;7.37;;
15340;SDS011;7770;52.158;5.372;2023-07-08T03:55:07;8.03;;;7.23;;
15340;SDS011;7770;52.158;5.372;2023-07-08T03:57:56;8.00;;;7.20;;
15340;SDS011;7770;52.158;5.372;2023-07-08T04:00:42;8.30;;;7.53;;
15340;SDS011;7770;52.158;5.372;2023-07-08T04:03:28;8.60;;;6.83;;
15340;SDS011;7770;52.158;5.372;2023-07-08T04:06:14;9.73;;;7.47;;
15340;SDS011;7770;52.158;5.372;2023-07-08T04:09:00;8.17;;;7.37;;
15340;SDS011;7770;52.158;5.372;2023-07-08T04:11:46;8.00;;;7.20;;
15340;SDS011;7770;52.158;5.372;2023-07-08T04:14:32;7.33;;;6.60;;
15340;SDS011;7770;52.158;5.372;2023-07-08T04:17:18;8.10;;;7.30;;
15340;SDS011;7770;52.158;5.372;2023-07-08T04:20:05;8.80;;;6.80;;
15340;SDS011;7770;52.158;5.372;2023-07-08T04:22:54;8.00;;;6.87;;
15340;SDS011;7770;52.158;5.372;2023-07-08T04:25:40;7.37;;;6.57;;
15340;SDS011;7770;52.158;5.372;2023-07-08T04:28:26;8.17;;;7.37;;
15340;SDS011;7770;52.158;5.372;2023-07-08T04:31:12;7.87;;;7.20;;
15340;SDS011;7770;52.158;5.372;2023-07-08T04:33:58;8.40;;;7.10;;
15340;SDS011;7770;52.158;5.372;2023-07-08T04:36:44;7.87;;;6.80;;
15340;SDS011;7770;52.158;5.372;2023-07-08T04:39:30;7.70;;;7.00;;
15340;SDS011;7770;52.158;5.372;2023-07-08T04:42:17;9.40;;;7.23;;
15340;SDS011;7770;52.158;5.372;2023-07-08T04:45:03;7.57;;;6.87;;
15340;SDS011;7770;52.158;5.372;2023-07-08T04:47:49;9.77;;;7.07;;
15340;SDS011;7770;52.158;5.372;2023-07-08T04:50:38;8.13;;;7.43;;
15340;SDS011;7770;52.158;5.372;2023-07-08T04:53:28;8.10;;;7.30;;
15340;SDS011;7770;52.158;5.372;2023-07-08T04:56:14;7.67;;;6.87;;
15340;SDS011;7770;52.158;5.372;2023-07-08T04:59:00;7.83;;;7.10;;
15340;SDS011;7770;52.158;5.372;2023-07-08T05:01:47;7.50;;;6.80;;
15340;SDS011;7770;52.158;5.372;2023-07-08T05:04:33;7.87;;;6.87;;
15340;SDS011;7770;52.158;5.372;2023-07-08T05:07:19;7.70;;;6.70;;
15340;SDS011;7770;52.158;5.372;2023-07-08T05:10:05;9.00;;;6.87;;
15340;SDS011;7770;52.158;5.372;2023-07-08T05:12:52;8.27;;;6.90;;
15340;SDS011;7770;52.158;5.372;2023-07-08T05:15:38;9.07;;;6.70;;
15340;SDS011;7770;52.158;5.372;2023-07-08T05:18:24;7.50;;;6.73;;
15340;SDS011;7770;52.158;5.372;2023-07-08T05:21:10;12.90;;;7.10;;
15340;SDS011;7770;52.158;5.372;2023-07-08T05:23:56;8.20;;;6.50;;
15340;SDS011;7770;52.158;5.372;2023-07-08T05:26:42;8.07;;;6.57;;
15340;SDS011;7770;52.158;5.372;2023-07-08T05:29:28;7.33;;;6.57;;
15340;SDS011;7770;52.158;5.372;2023-07-08T05:32:15;7.27;;;6.47;;
15340;SDS011;7770;52.158;5.372;2023-07-08T05:35:01;7.27;;;6.60;;
15340;SDS011;7770;52.158;5.372;2023-07-08T05:37:47;7.17;;;6.47;;
15340;SDS011;7770;52.158;5.372;2023-07-08T05:40:33;7.07;;;6.37;;
15340;SDS011;7770;52.158;5.372;2023-07-08T05:43:19;8.10;;;6.60;;
15340;SDS011;7770;52.158;5.372;2023-07-08T05:46:05;8.30;;;6.50;;
15340;SDS011;7770;52.158;5.372;2023-07-08T05:48:52;7.30;;;6.70;;
15340;SDS011;7770;52.158;5.372;2023-07-08T05:51:39;9.17;;;6.50;;
15340;SDS011;7770;52.158;5.372;2023-07-08T05:54:25;7.30;;;6.33;;
15340;SDS011;7770;52.158;5.372;2023-07-08T05:57:11;7.82;;;6.22;;
15340;SDS011;7770;52.158;5.372;2023-07-08T05:59:58;8.67;;;6.23;;
15340;SDS011;7770;52.158;5.372;2023-07-08T06:02:44;7.18;;;6.47;;
15340;SDS011;7770;52.158;5.372;2023-07-08T06:05:30;8.77;;;6.30;;
15340;SDS011;7770;52.158;5.372;2023-07-08T06:08:18;7.32;;;6.55;;
15340;SDS011;7770;52.158;5.372;2023-07-08T06:11:04;8.05;;;6.57;;
15340;SDS011;7770;52.158;5.372;2023-07-08T06:13:50;7.28;;;6.57;;
15340;SDS011;7770;52.158;5.372;2023-07-08T06:16:37;7.10;;;6.40;;
15340;SDS011;7770;52.158;5.372;2023-07-08T06:19:23;10.60;;;6.43;;
15340;SDS011;7770;52.158;5.372;2023-07-08T06:22:09;7.17;;;6.53;;
15340;SDS011;7770;52.158;5.372;2023-07-08T06:24:55;7.00;;;6.30;;
15340;SDS011;7770;52.158;5.372;2023-07-08T06:27:41;7.50;;;6.80;;
15340;SDS011;7770;52.158;5.372;2023-07-08T06:30:27;10.10;;;6.85;;
15340;SDS011;7770;52.158;5.372;2023-07-08T06:33:13;7.17;;;6.47;;
15340;SDS011;7770;52.158;5.372;2023-07-08T06:36:00;7.17;;;6.47;;
15340;SDS011;7770;52.158;5.372;2023-07-08T06:38:46;9.23;;;6.80;;
15340;SDS011;7770;52.158;5.372;2023-07-08T06:41:32;8.93;;;6.80;;
15340;SDS011;7770;52.158;5.372;2023-07-08T06:44:18;8.53;;;7.07;;
15340;SDS011;7770;52.158;5.372;2023-07-08T06:47:04;10.17;;;7.03;;
15340;SDS011;7770;52.158;5.372;2023-07-08T06:49:50;7.00;;;6.30;;
15340;SDS011;7770;52.158;5.372;2023-07-08T06:52:36;8.60;;;6.73;;
15340;SDS011;7770;52.158;5.372;2023-07-08T06:55:23;7.30;;;6.63;;
15340;SDS011;7770;52.158;5.372;2023-07-08T06:58:09;7.93;;;6.70;;
15340;SDS011;7770;52.158;5.372;2023-07-08T07:00:55;8.33;;;6.53;;
15340;SDS011;7770;52.158;5.372;2023-07-08T07:03:41;8.70;;;6.53;;
15340;SDS011;7770;52.158;5.372;2023-07-08T07:06:28;8.07;;;6.10;;
15340;SDS011;7770;52.158;5.372;2023-07-08T07:09:15;7.23;;;6.50;;
15340;SDS011;7770;52.158;5.372;2023-07-08T07:12:01;9.27;;;6.63;;
15340;SDS011;7770;52.158;5.372;2023-07-08T07:14:47;7.37;;;6.50;;
15340;SDS011;7770;52.158;5.372;2023-07-08T07:17:35;7.23;;;6.50;;
15340;SDS011;7770;52.158;5.372;2023-07-08T07:20:21;6.80;;;6.07;;
15340;SDS011;7770;52.158;5.372;2023-07-08T07:23:07;6.83;;;6.13;;
15340;SDS011;7770;52.158;5.372;2023-07-08T07:25:53;9.00;;;6.65;;
15340;SDS011;7770;52.158;5.372;2023-07-08T07:28:39;7.07;;;6.20;;
15340;SDS011;7770;52.158;5.372;2023-07-08T07:31:25;7.28;;;6.57;;
15340;SDS011;7770;52.158;5.372;2023-07-08T07:34:11;6.63;;;6.03;;
15340;SDS011;7770;52.158;5.372;2023-07-08T07:36:57;6.93;;;6.22;;
15340;SDS011;7770;52.158;5.372;2023-07-08T07:39:43;7.65;;;6.25;;
15340;SDS011;7770;52.158;5.372;2023-07-08T07:42:30;7.35;;;6.10;;
15340;SDS011;7770;52.158;5.372;2023-07-08T07:45:16;7.50;;;5.53;;
15340;SDS011;7770;52.158;5.372;2023-07-08T07:48:02;7.28;;;5.80;;
15340;SDS011;7770;52.158;5.372;2023-07-08T07:50:49;6.57;;;5.90;;
15340;SDS011;7770;52.158;5.372;2023-07-08T07:53:37;6.82;;;5.97;;
15340;SDS011;7770;52.158;5.372;2023-07-08T07:56:23;6.63;;;5.97;;
15340;SDS011;7770;52.158;5.372;2023-07-08T07:59:10;6.47;;;5.88;;
15340;SDS011;7770;52.158;5.372;2023-07-08T08:01:56;7.15;;;6.10;;
15340;SDS011;7770;52.158;5.372;2023-07-08T08:04:42;7.03;;;6.22;;
15340;SDS011;7770;52.158;5.372;2023-07-08T08:07:28;9.40;;;6.00;;
15340;SDS011;7770;52.158;5.372;2023-07-08T08:10:14;6.68;;;6.00;;
15340;SDS011;7770;52.158;5.372;2023-07-08T08:13:01;10.98;;;6.63;;
15340;SDS011;7770;52.158;5.372;2023-07-08T08:15:48;9.23;;;6.30;;
15340;SDS011;7770;52.158;5.372;2023-07-08T08:18:34;6.85;;;6.15;;
15340;SDS011;7770;52.158;5.372;2023-07-08T08:21:20;7.72;;;6.15;;
15340;SDS011;7770;52.158;5.372;2023-07-08T08:24:07;7.53;;;6.82;;
15340;SDS011;7770;52.158;5.372;2023-07-08T08:26:53;8.05;;;6.95;;
15340;SDS011;7770;52.158;5.372;2023-07-08T08:29:39;8.23;;;6.53;;
15340;SDS011;7770;52.158;5.372;2023-07-08T08:32:24;7.65;;;6.75;;
15340;SDS011;7770;52.158;5.372;2023-07-08T08:35:10;8.70;;;6.70;;
15340;SDS011;7770;52.158;5.372;2023-07-08T08:37:56;7.43;;;6.70;;
15340;SDS011;7770;52.158;5.372;2023-07-08T08:40:42;6.93;;;6.15;;
15340;SDS011;7770;52.158;5.372;2023-07-08T08:43:31;7.43;;;6.53;;
15340;SDS011;7770;52.158;5.372;2023-07-08T08:46:24;7.55;;;6.85;;
15340;SDS011;7770;52.158;5.372;2023-07-08T08:49:25;7.93;;;7.00;;
15340;SDS011;7770;52.158;5.372;2023-07-08T08:52:25;10.13;;;6.72;;
15340;SDS011;7770;52.158;5.372;2023-07-08T08:55:12;7.82;;;7.03;;
15340;SDS011;7770;52.158;5.372;2023-07-08T08:58:06;8.05;;;6.40;;
15340;SDS011;7770;52.158;5.372;2023-07-08T09:01:23;12.75;;;7.07;;
15340;SDS011;7770;52.158;5.372;2023-07-08T09:04:11;7.15;;;6.53;;
15340;SDS011;7770;52.158;5.372;2023-07-08T09:07:08;8.20;;;7.50;;
15340;SDS011;7770;52.158;5.372;2023-07-08T09:10:03;7.95;;;7.15;;
15340;SDS011;7770;52.158;5.372;2023-07-08T09:13:04;8.75;;;7.40;;
15340;SDS011;7770;52.158;5.372;2023-07-08T09:15:54;8.52;;;7.72;;
15340;SDS011;7770;52.158;5.372;2023-07-08T09:19:23;8.65;;;7.75;;
15340;SDS011;7770;52.158;5.372;2023-07-08T09:28:18;9.25;;;7.78;;
15340;SDS011;7770;52.158;5.372;2023-07-08T09:31:05;9.30;;;6.97;;
15340;SDS011;7770;52.158;5.372;2023-07-08T09:33:54;9.63;;;8.07;;
15340;SDS011;7770;52.158;5.372;2023-07-08T09:36:58;8.32;;;7.47;;
15340;SDS011;7770;52.158;5.372;2023-07-08T09:39:44;10.45;;;7.95;;
15340;SDS011;7770;52.158;5.372;2023-07-08T09:42:31;8.07;;;7.30;;
15340;SDS011;7770;52.158;5.372;2023-07-08T09:45:19;8.43;;;7.63;;
15340;SDS011;7770;52.158;5.372;2023-07-08T09:48:17;8.70;;;7.53;;
15340;SDS011;7770;52.158;5.372;2023-07-08T09:51:09;8.20;;;7.40;;
15340;SDS011;7770;52.158;5.372;2023-07-08T09:53:55;8.73;;;7.93;;
15340;SDS011;7770;52.158;5.372;2023-07-08T09:56:42;8.07;;;7.20;;
15340;SDS011;7770;52.158;5.372;2023-07-08T09:59:36;9.68;;;8.40;;
15340;SDS011;7770;52.158;5.372;2023-07-08T10:02:30;9.85;;;8.95;;
15340;SDS011;7770;52.158;5.372;2023-07-08T10:05:38;9.70;;;8.90;;
15340;SDS011;7770;52.158;5.372;2023-07-08T10:08:42;9.43;;;8.52;;
15340;SDS011;7770;52.158;5.372;2023-07-08T10:11:31;9.52;;;8.63;;
15340;SDS011;7770;52.158;5.372;2023-07-08T10:17:15;9.63;;;8.82;;
15340;SDS011;7770;52.158;5.372;2023-07-08T10:20:04;10.05;;;9.15;;
15340;SDS011;7770;52.158;5.372;2023-07-08T10:23:05;10.57;;;9.68;;
15340;SDS011;7770;52.158;5.372;2023-07-08T10:35:15;9.60;;;8.80;;
15340;SDS011;7770;52.158;5.372;2023-07-08T10:38:38;9.52;;;8.52;;
15340;SDS011;7770;52.158;5.372;2023-07-08T10:42:06;11.35;;;9.20;;
15340;SDS011;7770;52.158;5.372;2023-07-08T10:45:13;10.27;;;9.38;;
15340;SDS011;7770;52.158;5.372;2023-07-08T10:58:19;10.35;;;9.45;;
15340;SDS011;7770;52.158;5.372;2023-07-08T11:07:19;9.98;;;8.98;;
15340;SDS011;7770;52.158;5.372;2023-07-08T11:10:28;10.10;;;9.20;;
15340;SDS011;7770;52.158;5.372;2023-07-08T11:13:21;11.00;;;9.07;;
15340;SDS011;7770;52.158;5.372;2023-07-08T11:19:19;10.32;;;9.07;;
15340;SDS011;7770;52.158;5.372;2023-07-08T11:22:17;10.98;;;9.88;;
15340;SDS011;7770;52.158;5.372;2023-07-08T11:25:07;10.15;;;9.13;;
15340;SDS011;7770;52.158;5.372;2023-07-08T11:28:04;10.45;;;9.43;;
15340;SDS011;7770;52.158;5.372;2023-07-08T11:30:55;10.55;;;9.55;;
15340;SDS011;7770;52.158;5.372;2023-07-08T11:33:46;10.30;;;9.30;;
15340;SDS011;7770;52.158;5.372;2023-07-08T11:36:33;10.30;;;9.38;;
15340;SDS011;7770;52.158;5.372;2023-07-08T11:39:26;10.57;;;9.52;;
15340;SDS011;7770;52.158;5.372;2023-07-08T11:42:37;10.85;;;9.85;;
15340;SDS011;7770;52.158;5.372;2023-07-08T11:45:31;10.45;;;9.40;;
15340;SDS011;7770;52.158;5.372;2023-07-08T11:48:30;10.52;;;9.63;;
15340;SDS011;7770;52.158;5.372;2023-07-08T11:51:34;10.98;;;9.98;;
15340;SDS011;7770;52.158;5.372;2023-07-08T11:54:27;10.68;;;9.30;;
15340;SDS011;7770;52.158;5.372;2023-07-08T11:57:23;10.65;;;9.43;;
15340;SDS011;7770;52.158;5.372;2023-07-08T12:00:22;10.55;;;9.52;;
15340;SDS011;7770;52.158;5.372;2023-07-08T12:03:18;14.13;;;9.77;;
15340;SDS011;7770;52.158;5.372;2023-07-08T12:09:22;11.30;;;10.07;;
15340;SDS011;7770;52.158;5.372;2023-07-08T12:12:23;11.30;;;9.40;;
15340;SDS011;7770;52.158;5.372;2023-07-08T12:15:21;11.75;;;9.95;;
15340;SDS011;7770;52.158;5.372;2023-07-08T12:18:15;10.55;;;9.50;;
15340;SDS011;7770;52.158;5.372;2023-07-08T12:21:02;10.07;;;9.27;;
15340;SDS011;7770;52.158;5.372;2023-07-08T12:23:48;10.63;;;9.48;;
15340;SDS011;7770;52.158;5.372;2023-07-08T12:26:35;10.98;;;9.98;;
15340;SDS011;7770;52.158;5.372;2023-07-08T12:29:21;10.23;;;9.23;;
15340;SDS011;7770;52.158;5.372;2023-07-08T12:32:09;10.18;;;9.27;;
15340;SDS011;7770;52.158;5.372;2023-07-08T12:34:59;11.35;;;10.18;;
15340;SDS011;7770;52.158;5.372;2023-07-08T12:37:45;10.40;;;9.40;;
15340;SDS011;7770;52.158;5.372;2023-07-08T12:40:31;10.95;;;9.85;;
15340;SDS011;7770;52.158;5.372;2023-07-08T12:43:17;11.02;;;9.98;;
15340;SDS011;7770;52.158;5.372;2023-07-08T12:46:04;10.85;;;9.70;;
15340;SDS011;7770;52.158;5.372;2023-07-08T12:48:50;10.98;;;9.88;;
15340;SDS011;7770;52.158;5.372;2023-07-08T12:51:36;13.10;;;9.90;;
15340;SDS011;7770;52.158;5.372;2023-07-08T12:54:22;11.05;;;9.95;;
15340;SDS011;7770;52.158;5.372;2023-07-08T12:57:08;11.77;;;9.90;;
15340;SDS011;7770;52.158;5.372;2023-07-08T12:59:55;11.35;;;10.13;;
15340;SDS011;7770;52.158;5.372;2023-07-08T13:02:43;11.20;;;10.20;;
15340;SDS011;7770;52.158;5.372;2023-07-08T13:05:32;11.38;;;10.27;;
15340;SDS011;7770;52.158;5.372;2023-07-08T13:08:20;10.23;;;9.05;;
15340;SDS011;7770;52.158;5.372;2023-07-08T13:11:08;10.70;;;9.60;;
15340;SDS011;7770;52.158;5.372;2023-07-08T13:14:01;11.55;;;9.77;;
15340;SDS011;7770;52.158;5.372;2023-07-08T13:16:50;10.88;;;9.93;;
15340;SDS011;7770;52.158;5.372;2023-07-08T13:19:36;10.45;;;9.35;;
15340;SDS011;7770;52.158;5.372;2023-07-08T13:22:22;11.68;;;10.50;;
15340;SDS011;7770;52.158;5.372;2023-07-08T13:25:16;10.52;;;9.63;;
15340;SDS011;7770;52.158;5.372;2023-07-08T13:34:09;10.98;;;9.38;;
15340;SDS011;7770;52.158;5.372;2023-07-08T13:37:02;10.27;;;9.27;;
15340;SDS011;7770;52.158;5.372;2023-07-08T13:39:48;13.25;;;9.18;;
15340;SDS011;7770;52.158;5.372;2023-07-08T13:42:34;10.63;;;9.40;;
15340;SDS011;7770;52.158;5.372;2023-07-08T13:45:25;10.50;;;9.23;;
15340;SDS011;7770;52.158;5.372;2023-07-08T13:51:22;10.30;;;9.20;;
15340;SDS011;7770;52.158;5.372;2023-07-08T13:54:13;9.23;;;8.38;;
15340;SDS011;7770;52.158;5.372;2023-07-08T13:57:13;10.40;;;8.80;;
15340;SDS011;7770;52.158;5.372;2023-07-08T14:00:03;9.27;;;8.48;;
15340;SDS011;7770;52.158;5.372;2023-07-08T14:02:52;10.00;;;9.00;;
15340;SDS011;7770;52.158;5.372;2023-07-08T14:05:38;10.07;;;8.75;;
15340;SDS011;7770;52.158;5.372;2023-07-08T14:08:24;9.63;;;8.73;;
15340;SDS011;7770;52.158;5.372;2023-07-08T14:11:10;9.32;;;8.38;;
15340;SDS011;7770;52.158;5.372;2023-07-08T14:13:56;10.20;;;8.50;;
15340;SDS011;7770;52.158;5.372;2023-07-08T14:16:43;10.45;;;8.57;;
15340;SDS011;7770;52.158;5.372;2023-07-08T14:19:34;10.43;;;8.95;;
15340;SDS011;7770;52.158;5.372;2023-07-08T14:22:22;9.98;;;8.52;;
15340;SDS011;7770;52.158;5.372;2023-07-08T14:25:13;9.15;;;8.25;;
15340;SDS011;7770;52.158;5.372;2023-07-08T14:28:00;9.10;;;8.07;;
15340;SDS011;7770;52.158;5.372;2023-07-08T14:30:48;9.77;;;8.13;;
15340;SDS011;7770;52.158;5.372;2023-07-08T14:33:34;9.07;;;8.15;;
15340;SDS011;7770;52.158;5.372;2023-07-08T14:36:19;10.55;;;8.15;;
15340;SDS011;7770;52.158;5.372;2023-07-08T14:39:12;9.23;;;8.30;;
15340;SDS011;7770;52.158;5.372;2023-07-08T14:42:01;9.02;;;8.13;;
15340;SDS011;7770;52.158;5.372;2023-07-08T14:44:48;10.77;;;8.25;;
15340;SDS011;7770;52.158;5.372;2023-07-08T14:47:35;9.73;;;8.35;;
15340;SDS011;7770;52.158;5.372;2023-07-08T14:50:21;12.32;;;8.15;;
15340;SDS011;7770;52.158;5.372;2023-07-08T14:53:08;11.20;;;8.60;;
15340;SDS011;7770;52.158;5.372;2023-07-08T14:55:55;11.88;;;9.95;;
15340;SDS011;7770;52.158;5.372;2023-07-08T14:58:43;11.35;;;9.55;;
15340;SDS011;7770;52.158;5.372;2023-07-08T15:01:31;9.98;;;9.00;;
15340;SDS011;7770;52.158;5.372;2023-07-08T15:04:17;13.90;;;12.20;;
15340;SDS011;7770;52.158;5.372;2023-07-08T15:07:04;10.63;;;9.35;;
15340;SDS011;7770;52.158;5.372;2023-07-08T15:09:54;11.60;;;9.80;;
15340;SDS011;7770;52.158;5.372;2023-07-08T15:12:40;10.40;;;9.27;;
15340;SDS011;7770;52.158;5.372;2023-07-08T15:15:30;11.07;;;9.40;;
15340;SDS011;7770;52.158;5.372;2023-07-08T15:18:25;10.27;;;9.23;;
15340;SDS011;7770;52.158;5.372;2023-07-08T15:21:11;11.10;;;10.10;;
15340;SDS011;7770;52.158;5.372;2023-07-08T15:23:58;9.60;;;8.60;;
15340;SDS011;7770;52.158;5.372;2023-07-08T15:26:46;9.98;;;9.07;;
15340;SDS011;7770;52.158;5.372;2023-07-08T15:29:33;11.20;;;9.07;;
15340;SDS011;7770;52.158;5.372;2023-07-08T15:32:19;10.20;;;9.20;;
15340;SDS011;7770;52.158;5.372;2023-07-08T15:35:13;11.70;;;8.93;;
15340;SDS011;7770;52.158;5.372;2023-07-08T15:38:02;10.65;;;9.55;;
15340;SDS011;7770;52.158;5.372;2023-07-08T15:40:49;10.82;;;8.90;;
15340;SDS011;7770;52.158;5.372;2023-07-08T15:43:35;12.75;;;11.50;;
15340;SDS011;7770;52.158;5.372;2023-07-08T15:46:21;10.45;;;9.45;;
15340;SDS011;7770;52.158;5.372;2023-07-08T15:49:09;12.20;;;9.55;;
15340;SDS011;7770;52.158;5.372;2023-07-08T15:51:59;10.20;;;9.30;;
15340;SDS011;7770;52.158;5.372;2023-07-08T15:54:45;13.27;;;9.20;;
15340;SDS011;7770;52.158;5.372;2023-07-08T15:57:32;14.65;;;11.30;;
15340;SDS011;7770;52.158;5.372;2023-07-08T16:00:31;10.70;;;9.65;;
15340;SDS011;7770;52.158;5.372;2023-07-08T16:03:23;13.43;;;9.63;;
15340;SDS011;7770;52.158;5.372;2023-07-08T16:06:15;12.13;;;10.98;;
15340;SDS011;7770;52.158;5.372;2023-07-08T16:09:02;14.93;;;13.50;;
15340;SDS011;7770;52.158;5.372;2023-07-08T16:11:48;14.95;;;13.50;;
15340;SDS011;7770;52.158;5.372;2023-07-08T16:14:35;11.90;;;9.10;;
15340;SDS011;7770;52.158;5.372;2023-07-08T16:17:21;14.13;;;12.65;;
15340;SDS011;7770;52.158;5.372;2023-07-08T16:20:29;10.43;;;9.38;;
15340;SDS011;7770;52.158;5.372;2023-07-08T16:23:16;14.52;;;11.40;;
15340;SDS011;7770;52.158;5.372;2023-07-08T16:26:02;13.52;;;12.23;;
15340;SDS011;7770;52.158;5.372;2023-07-08T16:28:49;19.20;;;14.45;;
15340;SDS011;7770;52.158;5.372;2023-07-08T16:31:35;17.85;;;16.17;;
15340;SDS011;7770;52.158;5.372;2023-07-08T16:34:21;24.20;;;21.85;;
15340;SDS011;7770;52.158;5.372;2023-07-08T16:37:07;10.75;;;9.68;;
15340;SDS011;7770;52.158;5.372;2023-07-08T16:39:53;11.93;;;10.10;;
15340;SDS011;7770;52.158;5.372;2023-07-08T16:42:41;18.48;;;16.85;;
15340;SDS011;7770;52.158;5.372;2023-07-08T16:45:29;11.10;;;9.75;;
15340;SDS011;7770;52.158;5.372;2023-07-08T16:48:16;13.00;;;11.55;;
15340;SDS011;7770;52.158;5.372;2023-07-08T16:51:04;18.40;;;16.63;;
15340;SDS011;7770;52.158;5.372;2023-07-08T16:54:01;12.40;;;11.25;;
15340;SDS011;7770;52.158;5.372;2023-07-08T16:56:59;10.70;;;9.65;;
15340;SDS011;7770;52.158;5.372;2023-07-08T16:59:45;14.10;;;10.20;;
15340;SDS011;7770;52.158;5.372;2023-07-08T17:02:32;10.95;;;9.90;;
15340;SDS011;7770;52.158;5.372;2023-07-08T17:08:13;11.80;;;10.18;;
15340;SDS011;7770;52.158;5.372;2023-07-08T17:11:01;10.77;;;9.57;;
15340;SDS011;7770;52.158;5.372;2023-07-08T17:13:47;11.43;;;10.20;;
15340;SDS011;7770;52.158;5.372;2023-07-08T17:16:33;10.38;;;9.43;;
15340;SDS011;7770;52.158;5.372;2023-07-08T17:19:21;13.70;;;10.13;;
15340;SDS011;7770;52.158;5.372;2023-07-08T17:22:08;11.77;;;9.57;;
15340;SDS011;7770;52.158;5.372;2023-07-08T17:24:55;12.45;;;9.70;;
15340;SDS011;7770;52.158;5.372;2023-07-08T17:27:42;10.55;;;9.35;;
15340;SDS011;7770;52.158;5.372;2023-07-08T17:30:28;13.43;;;9.68;;
15340;SDS011;7770;52.158;5.372;2023-07-08T17:33:15;12.43;;;9.70;;
15340;SDS011;7770;52.158;5.372;2023-07-08T17:36:08;11.55;;;9.65;;
15340;SDS011;7770;52.158;5.372;2023-07-08T17:38:56;10.20;;;9.18;;
15340;SDS011;7770;52.158;5.372;2023-07-08T17:41:43;11.00;;;9.80;;
15340;SDS011;7770;52.158;5.372;2023-07-08T17:44:32;12.32;;;10.70;;
15340;SDS011;7770;52.158;5.372;2023-07-08T17:47:18;10.88;;;9.50;;
15340;SDS011;7770;52.158;5.372;2023-07-08T17:50:14;13.13;;;10.45;;
15340;SDS011;7770;52.158;5.372;2023-07-08T17:53:11;11.73;;;9.90;;
15340;SDS011;7770;52.158;5.372;2023-07-08T17:55:57;12.43;;;9.73;;
15340;SDS011;7770;52.158;5.372;2023-07-08T17:58:45;11.95;;;9.52;;